createdAt,value
2018-09-14T03:22:59.188Z,8.30
2018-09-14T03:25:28.488Z,9.60
2018-09-14T03:27:57.844Z,7.85
2018-09-14T03:30:28.218Z,8.20
2018-09-14T06:31:23.382Z,30.80
2018-09-14T06:33:53.287Z,27.05
2018-09-14T06:36:22.902Z,24.40
2018-09-14T06:38:54.582Z,20.00
2018-09-14T06:41:23.951Z,18.45
2018-09-14T06:43:53.798Z,18.55
2018-09-14T08:00:46.291Z,12.20
2018-09-14T08:25:33.176Z,13.90
2018-09-14T08:28:02.705Z,13.70
2018-09-14T08:30:32.714Z,16.70
2018-09-14T08:33:02.339Z,13.45
2018-09-14T08:35:31.999Z,11.60
2018-09-14T08:42:59.319Z,14.00
2018-09-14T08:45:28.726Z,12.90
2018-09-14T08:47:58.392Z,12.90
2018-09-14T08:50:27.712Z,14.73
2018-09-14T08:57:54.315Z,11.05
2018-09-14T09:00:25.776Z,12.30
2018-09-14T09:02:55.603Z,13.60
2018-09-14T09:05:25.753Z,14.27
2018-09-14T09:07:55.258Z,15.15
2018-09-14T09:10:24.601Z,13.33
2018-09-14T09:12:54.135Z,9.73
2018-09-14T09:15:23.596Z,12.85
2018-09-14T09:17:53.470Z,15.50
2018-09-14T09:20:24.122Z,13.07
2018-09-14T09:22:54.342Z,13.37
2018-09-14T09:25:23.926Z,11.90
2018-09-14T09:27:53.303Z,14.60
2018-09-14T09:30:22.782Z,15.60
2018-09-14T09:32:52.142Z,12.40
2018-09-14T09:35:21.602Z,14.00
2018-09-14T09:37:52.073Z,13.30
2018-09-14T09:40:21.726Z,11.65
2018-09-14T09:42:51.036Z,13.05
2018-09-14T09:45:20.324Z,11.87
2018-09-14T09:47:50.092Z,11.30
2018-09-14T09:50:19.424Z,13.50
2018-09-14T09:52:48.993Z,13.20
2018-09-14T09:55:38.136Z,10.35
2018-09-14T09:58:08.381Z,15.07
2018-09-14T10:00:42.814Z,11.00
2018-09-14T10:03:17.096Z,12.07
2018-09-14T10:05:51.765Z,9.97
2018-09-14T10:08:21.990Z,9.73
2018-09-14T10:10:51.511Z,7.97
2018-09-14T10:13:21.055Z,7.07
2018-09-14T10:15:50.434Z,8.27
2018-09-14T10:18:19.822Z,9.87
2018-09-14T10:20:49.507Z,8.67
2018-09-14T10:23:19.182Z,7.37
2018-09-14T10:25:49.544Z,8.60
2018-09-14T10:28:18.962Z,10.87
2018-09-14T10:30:48.392Z,11.10
2018-09-14T10:33:18.603Z,8.97
2018-09-14T10:35:48.166Z,8.75
2018-09-14T10:38:17.930Z,7.40
2018-09-14T10:40:47.735Z,7.40
2018-09-14T10:43:17.335Z,8.10
2018-09-14T10:45:47.583Z,6.25
2018-09-14T10:48:17.692Z,5.93
2018-09-14T10:50:47.512Z,6.90
2018-09-14T10:53:17.779Z,5.75
2018-09-14T10:55:47.265Z,6.53
2018-09-14T11:00:47.940Z,5.80
2018-09-14T11:03:17.429Z,4.53
2018-09-14T11:05:46.889Z,6.20
2018-09-14T11:08:16.197Z,5.70
2018-09-14T11:10:45.869Z,6.83
2018-09-14T11:13:15.360Z,6.35
2018-09-14T11:15:45.331Z,6.13
2018-09-14T11:18:14.750Z,9.17
2018-09-14T11:20:44.953Z,5.43
2018-09-14T11:23:14.319Z,5.53
2018-09-14T11:25:43.843Z,5.37
2018-09-14T11:28:13.475Z,5.87
2018-09-14T11:30:43.790Z,5.27
2018-09-14T11:33:13.453Z,6.97
2018-09-14T11:35:42.972Z,5.55
2018-09-14T11:38:12.409Z,5.43
2018-09-14T11:40:42.887Z,6.37
2018-09-14T11:43:12.398Z,6.53
2018-09-14T11:45:42.681Z,4.40
2018-09-14T11:48:12.229Z,4.93
2018-09-14T11:50:43.218Z,5.70
2018-09-14T11:53:12.868Z,5.57
2018-09-14T11:55:42.073Z,4.93
2018-09-14T11:58:12.525Z,4.40
2018-09-14T12:00:41.858Z,2.47
2018-09-14T12:03:11.859Z,5.93
2018-09-14T12:05:41.255Z,3.80
2018-09-14T12:08:11.636Z,5.77
2018-09-14T12:10:41.118Z,4.63
2018-09-14T12:13:10.590Z,4.87
2018-09-14T12:15:40.066Z,9.90
2018-09-14T12:18:09.641Z,6.17
2018-09-14T12:20:39.263Z,3.80
2018-09-14T12:23:09.077Z,4.45
2018-09-14T12:25:39.166Z,7.23
2018-09-14T12:28:09.664Z,3.90
2018-09-14T12:30:39.528Z,4.13
2018-09-14T12:33:10.055Z,5.80
2018-09-14T12:35:39.541Z,5.20
2018-09-14T12:38:08.948Z,6.80
2018-09-14T12:40:39.214Z,4.95
2018-09-14T12:43:08.494Z,3.87
2018-09-14T12:45:38.567Z,3.20
2018-09-14T12:48:07.931Z,4.30
2018-09-14T12:50:38.260Z,5.23
2018-09-14T12:53:07.952Z,4.17
2018-09-14T12:55:37.290Z,3.50
2018-09-14T12:58:06.590Z,5.23
2018-09-14T13:00:36.517Z,3.70
2018-09-14T13:03:05.964Z,4.63
2018-09-14T13:05:36.069Z,6.33
2018-09-14T13:08:06.614Z,4.87
2018-09-14T13:10:36.650Z,4.13
2018-09-14T13:13:07.325Z,5.00
2018-09-14T13:15:37.532Z,5.40
2018-09-14T13:18:07.039Z,4.97
2018-09-14T13:20:36.436Z,6.30
2018-09-14T13:23:05.723Z,5.70
2018-09-14T13:25:35.956Z,11.97
2018-09-14T13:28:06.639Z,5.93
2018-09-14T13:30:36.378Z,5.50
2018-09-14T13:33:06.407Z,5.93
2018-09-14T13:35:35.858Z,4.83
2018-09-14T13:38:05.479Z,5.67
2018-09-14T13:40:35.390Z,4.35
2018-09-14T13:43:06.542Z,7.23
2018-09-14T13:45:35.830Z,6.80
2018-09-14T13:48:05.348Z,5.00
2018-09-14T13:50:34.855Z,6.07
2018-09-14T13:53:04.983Z,5.60
2018-09-14T13:55:35.102Z,7.00
2018-09-14T13:58:04.540Z,3.20
2018-09-14T14:00:33.936Z,2.90
2018-09-14T14:03:03.414Z,5.57
2018-09-14T14:05:33.033Z,4.23
2018-09-14T14:08:03.329Z,5.47
2018-09-14T14:10:32.695Z,3.00
2018-09-14T14:13:01.994Z,3.10
2018-09-14T14:15:31.479Z,3.43
2018-09-14T14:18:01.095Z,2.85
2018-09-14T14:20:30.660Z,3.00
2018-09-14T14:23:00.406Z,3.75
2018-09-14T14:25:29.793Z,6.77
2018-09-14T14:28:00.477Z,6.37
2018-09-14T14:30:30.483Z,4.33
2018-09-14T14:33:00.084Z,5.13
2018-09-14T14:35:30.379Z,5.70
2018-09-14T14:38:00.736Z,4.40
2018-09-14T14:40:30.260Z,3.10
2018-09-14T14:42:59.926Z,3.87
2018-09-14T14:45:29.594Z,2.73
2018-09-14T14:47:58.993Z,4.30
2018-09-14T14:50:28.526Z,3.97
2018-09-14T14:52:58.071Z,5.27
2018-09-14T14:55:27.608Z,5.70
2018-09-14T14:57:56.974Z,3.30
2018-09-14T15:00:26.601Z,2.70
2018-09-14T15:02:56.549Z,5.27
2018-09-14T15:05:25.838Z,3.73
2018-09-14T15:07:55.914Z,2.70
2018-09-14T15:10:25.342Z,3.75
2018-09-14T15:12:54.624Z,3.70
2018-09-14T15:15:23.954Z,2.55
2018-09-14T15:17:53.441Z,2.40
2018-09-14T15:20:23.670Z,4.10
2018-09-14T15:22:53.220Z,2.05
2018-09-14T15:25:22.639Z,3.47
2018-09-14T15:27:52.144Z,3.57
2018-09-14T15:30:21.793Z,2.73
2018-09-14T15:32:52.228Z,2.50
2018-09-14T15:35:22.661Z,2.35
2018-09-14T15:37:52.551Z,2.30
2018-09-14T15:40:22.483Z,1.20
2018-09-14T15:42:52.161Z,1.30
2018-09-14T15:45:22.586Z,2.20
2018-09-14T15:47:51.913Z,2.10
2018-09-14T15:50:21.433Z,2.60
2018-09-14T15:52:51.041Z,2.07
2018-09-14T15:55:22.083Z,5.30
2018-09-14T15:57:51.680Z,0.70
2018-09-14T16:00:21.959Z,2.23
2018-09-14T16:02:53.255Z,3.53
2018-09-14T16:05:23.511Z,2.67
2018-09-14T16:07:53.326Z,2.10
2018-09-14T16:10:22.873Z,2.50
2018-09-14T16:12:52.151Z,2.35
2018-09-14T16:15:22.245Z,2.33
2018-09-14T16:17:52.192Z,1.20
2018-09-14T16:20:21.879Z,2.17
2018-09-14T16:22:52.097Z,2.67
2018-09-14T16:25:21.530Z,1.37
2018-09-14T16:27:51.587Z,3.05
2018-09-14T16:30:21.069Z,3.80
2018-09-14T16:32:51.205Z,3.07
2018-09-14T16:35:21.269Z,2.67
2018-09-14T16:37:51.250Z,3.25
2018-09-14T16:40:20.545Z,4.80
2018-09-14T16:42:50.185Z,2.13
2018-09-14T16:45:20.139Z,3.50
2018-09-14T16:47:49.730Z,2.10
2018-09-14T16:50:19.207Z,2.20
2018-09-14T16:52:48.766Z,4.27
2018-09-14T16:55:18.869Z,6.03
2018-09-14T16:57:48.261Z,3.63
2018-09-14T17:00:18.514Z,2.25
2018-09-14T17:02:48.006Z,2.93
2018-09-14T17:05:17.282Z,1.97
2018-09-14T17:07:46.810Z,2.47
2018-09-14T17:10:16.424Z,2.10
2018-09-14T17:12:46.528Z,2.93
2018-09-14T17:15:15.954Z,5.75
2018-09-14T17:17:46.143Z,3.67
2018-09-14T17:20:15.572Z,2.00
2018-09-14T17:22:45.337Z,2.87
2018-09-14T17:25:15.740Z,3.60
2018-09-14T17:27:45.123Z,5.33
2018-09-14T17:30:14.414Z,4.90
2018-09-14T17:32:43.722Z,3.87
2018-09-14T17:35:13.508Z,2.20
2018-09-14T17:37:43.406Z,6.55
2018-09-14T17:40:12.846Z,1.77
2018-09-14T17:42:42.336Z,4.15
2018-09-14T17:45:11.912Z,4.13
2018-09-14T17:47:41.356Z,2.50
2018-09-14T17:50:11.197Z,3.33
2018-09-14T17:52:40.678Z,2.30
2018-09-14T17:55:10.505Z,3.30
2018-09-14T17:57:39.967Z,2.55
2018-09-14T18:00:10.000Z,1.87
2018-09-14T18:02:39.870Z,3.45
2018-09-14T18:05:09.295Z,2.40
2018-09-14T18:07:38.654Z,1.40
2018-09-14T18:10:08.534Z,3.90
2018-09-14T18:12:38.470Z,1.60
2018-09-14T18:15:08.085Z,1.80
2018-09-14T18:17:38.252Z,3.13
2018-09-14T18:20:08.009Z,2.23
2018-09-14T18:22:38.226Z,2.25
2018-09-14T18:25:08.004Z,4.20
2018-09-14T18:27:38.334Z,4.33
2018-09-14T18:30:11.171Z,3.70
2018-09-14T18:32:41.296Z,3.50
2018-09-14T18:35:10.914Z,2.70
2018-09-14T18:37:40.619Z,3.47
2018-09-14T18:40:10.117Z,4.00
2018-09-14T18:42:40.003Z,2.00
2018-09-14T18:45:09.635Z,4.15
2018-09-14T18:47:38.931Z,2.90
2018-09-14T18:50:08.545Z,3.07
2018-09-14T18:52:38.633Z,2.85
2018-09-14T18:55:09.465Z,5.40
2018-09-14T18:57:38.752Z,4.70
2018-09-14T19:00:08.451Z,4.45
2018-09-14T19:02:37.855Z,3.43
2018-09-14T19:05:07.487Z,2.80
2018-09-14T19:07:36.960Z,3.77
2018-09-14T19:10:06.341Z,2.70
2018-09-14T19:12:35.797Z,2.85
2018-09-14T19:15:05.711Z,2.13
2018-09-14T19:17:35.402Z,1.97
2018-09-14T19:20:04.879Z,2.45
2018-09-14T19:22:34.492Z,3.10
2018-09-14T19:25:03.801Z,4.70
2018-09-14T19:27:33.203Z,3.50
2018-09-14T19:30:02.624Z,1.95
2018-09-14T19:32:32.000Z,3.63
2018-09-14T19:39:59.126Z,4.80
2018-09-14T19:42:28.898Z,4.60
2018-09-14T19:44:58.246Z,3.50
2018-09-14T20:34:32.763Z,3.00
2018-09-14T20:39:30.846Z,9.40
2018-09-14T20:44:28.672Z,5.00
2018-09-14T20:49:26.703Z,5.20
2018-09-14T21:14:14.638Z,4.00
2018-09-14T21:24:09.830Z,6.20
2018-09-14T21:31:37.626Z,6.50
2018-09-14T21:34:07.833Z,6.60
2018-09-14T21:51:30.352Z,6.50
2018-09-14T21:53:59.684Z,4.87
2018-09-14T21:56:29.148Z,9.35
2018-09-14T21:58:58.588Z,6.70
2018-09-14T22:01:29.289Z,5.40
2018-09-14T22:03:59.989Z,5.00
2018-09-14T22:06:29.362Z,6.20
2018-09-14T22:08:58.968Z,5.90
2018-09-14T22:11:28.756Z,3.80
2018-09-14T22:18:55.038Z,4.20
2018-09-14T22:21:24.869Z,4.60
2018-09-14T22:31:21.138Z,6.20
2018-09-14T23:20:59.995Z,8.20
